sensor_id;sensor_type;location;lat;lon;timestamp;P1;durP1;ratioP1;P2;durP2;ratioP2
27979;SDS011;15315;50.836;4.430;2023-06-14T00:01:15;12.00;;;6.25;;
27979;SDS011;15315;50.836;4.430;2023-06-14T00:11:15;13.27;;;6.10;;
27979;SDS011;15315;50.836;4.430;2023-06-14T00:21:15;16.00;;;6.32;;
27979;SDS011;15315;50.836;4.430;2023-06-14T00:31:16;17.08;;;5.68;;
27979;SDS011;15315;50.836;4.430;2023-06-14T00:41:16;11.83;;;5.67;;
27979;SDS011;15315;50.836;4.430;2023-06-14T00:51:17;12.38;;;6.68;;
27979;SDS011;15315;50.836;4.430;2023-06-14T01:01:17;17.00;;;5.93;;
27979;SDS011;15315;50.836;4.430;2023-06-14T01:11:26;10.60;;;5.80;;
27979;SDS011;15315;50.836;4.430;2023-06-14T01:21:31;13.97;;;6.20;;
27979;SDS011;15315;50.836;4.430;2023-06-14T01:31:41;14.05;;;6.53;;
27979;SDS011;15315;50.836;4.430;2023-06-14T01:41:42;9.68;;;6.10;;
27979;SDS011;15315;50.836;4.430;2023-06-14T01:51:44;10.10;;;6.47;;
27979;SDS011;15315;50.836;4.430;2023-06-14T02:01:44;10.23;;;6.03;;
27979;SDS011;15315;50.836;4.430;2023-06-14T02:11:46;13.98;;;6.50;;
27979;SDS011;15315;50.836;4.430;2023-06-14T02:21:47;16.80;;;6.53;;
27979;SDS011;15315;50.836;4.430;2023-06-14T02:31:47;14.38;;;6.68;;
27979;SDS011;15315;50.836;4.430;2023-06-14T02:41:48;12.80;;;6.97;;
27979;SDS011;15315;50.836;4.430;2023-06-14T02:51:50;12.02;;;6.25;;
27979;SDS011;15315;50.836;4.430;2023-06-14T03:01:50;14.50;;;7.07;;
27979;SDS011;15315;50.836;4.430;2023-06-14T03:11:51;12.05;;;6.40;;
27979;SDS011;15315;50.836;4.430;2023-06-14T03:21:51;14.20;;;7.07;;
27979;SDS011;15315;50.836;4.430;2023-06-14T03:32:00;15.00;;;7.63;;
27979;SDS011;15315;50.836;4.430;2023-06-14T03:42:02;10.00;;;7.15;;
27979;SDS011;15315;50.836;4.430;2023-06-14T03:52:03;22.42;;;7.88;;
27979;SDS011;15315;50.836;4.430;2023-06-14T04:02:04;12.45;;;7.55;;
27979;SDS011;15315;50.836;4.430;2023-06-14T04:12:05;11.00;;;6.35;;
27979;SDS011;15315;50.836;4.430;2023-06-14T04:22:06;12.13;;;7.20;;
27979;SDS011;15315;50.836;4.430;2023-06-14T04:32:06;13.57;;;8.05;;
27979;SDS011;15315;50.836;4.430;2023-06-14T04:42:10;16.23;;;7.60;;
27979;SDS011;15315;50.836;4.430;2023-06-14T04:52:13;13.00;;;7.07;;
27979;SDS011;15315;50.836;4.430;2023-06-14T05:02:13;20.55;;;8.07;;
27979;SDS011;15315;50.836;4.430;2023-06-14T05:12:14;12.35;;;7.13;;
27979;SDS011;15315;50.836;4.430;2023-06-14T05:22:18;12.73;;;7.60;;
27979;SDS011;15315;50.836;4.430;2023-06-14T05:32:18;11.15;;;7.25;;
27979;SDS011;15315;50.836;4.430;2023-06-14T05:42:19;14.77;;;7.75;;
27979;SDS011;15315;50.836;4.430;2023-06-14T05:52:20;13.60;;;7.85;;
27979;SDS011;15315;50.836;4.430;2023-06-14T06:02:20;13.40;;;7.68;;
27979;SDS011;15315;50.836;4.430;2023-06-14T06:12:21;17.92;;;6.97;;
27979;SDS011;15315;50.836;4.430;2023-06-14T06:22:21;23.35;;;7.82;;
27979;SDS011;15315;50.836;4.430;2023-06-14T06:32:22;14.32;;;7.07;;
27979;SDS011;15315;50.836;4.430;2023-06-14T06:42:22;15.35;;;7.15;;
27979;SDS011;15315;50.836;4.430;2023-06-14T06:52:22;17.23;;;7.00;;
27979;SDS011;15315;50.836;4.430;2023-06-14T07:02:23;13.50;;;7.57;;
27979;SDS011;15315;50.836;4.430;2023-06-14T07:12:23;13.65;;;6.75;;
27979;SDS011;15315;50.836;4.430;2023-06-14T07:22:23;15.27;;;6.50;;
27979;SDS011;15315;50.836;4.430;2023-06-14T07:32:24;13.20;;;6.18;;
27979;SDS011;15315;50.836;4.430;2023-06-14T07:42:25;8.98;;;6.25;;
27979;SDS011;15315;50.836;4.430;2023-06-14T07:52:25;19.42;;;6.30;;
27979;SDS011;15315;50.836;4.430;2023-06-14T08:02:26;13.40;;;6.28;;
27979;SDS011;15315;50.836;4.430;2023-06-14T08:12:26;19.73;;;7.32;;
27979;SDS011;15315;50.836;4.430;2023-06-14T08:22:26;15.52;;;6.90;;
27979;SDS011;15315;50.836;4.430;2023-06-14T08:32:29;15.45;;;7.07;;
27979;SDS011;15315;50.836;4.430;2023-06-14T08:42:29;14.10;;;6.60;;
27979;SDS011;15315;50.836;4.430;2023-06-14T08:52:32;16.33;;;6.57;;
27979;SDS011;15315;50.836;4.430;2023-06-14T09:02:41;14.00;;;5.95;;
27979;SDS011;15315;50.836;4.430;2023-06-14T09:12:43;11.40;;;6.63;;
27979;SDS011;15315;50.836;4.430;2023-06-14T09:22:44;13.52;;;6.43;;
27979;SDS011;15315;50.836;4.430;2023-06-14T09:32:44;17.05;;;7.03;;
27979;SDS011;15315;50.836;4.430;2023-06-14T09:42:45;13.40;;;6.13;;
27979;SDS011;15315;50.836;4.430;2023-06-14T09:52:46;10.55;;;6.32;;
27979;SDS011;15315;50.836;4.430;2023-06-14T10:02:51;16.92;;;7.07;;
27979;SDS011;15315;50.836;4.430;2023-06-14T10:12:58;17.85;;;5.93;;
27979;SDS011;15315;50.836;4.430;2023-06-14T10:23:02;12.55;;;7.00;;
27979;SDS011;15315;50.836;4.430;2023-06-14T10:33:09;14.25;;;6.30;;
27979;SDS011;15315;50.836;4.430;2023-06-14T10:43:22;15.30;;;6.10;;
27979;SDS011;15315;50.836;4.430;2023-06-14T10:53:24;12.88;;;5.00;;
27979;SDS011;15315;50.836;4.430;2023-06-14T11:03:43;14.07;;;4.88;;
27979;SDS011;15315;50.836;4.430;2023-06-14T11:13:55;8.45;;;5.20;;
27979;SDS011;15315;50.836;4.430;2023-06-14T11:23:55;11.43;;;5.18;;
27979;SDS011;15315;50.836;4.430;2023-06-14T11:33:56;18.88;;;5.55;;
27979;SDS011;15315;50.836;4.430;2023-06-14T11:43:59;10.68;;;4.90;;
27979;SDS011;15315;50.836;4.430;2023-06-14T11:54:01;19.55;;;5.72;;
27979;SDS011;15315;50.836;4.430;2023-06-14T12:04:02;14.38;;;5.70;;
27979;SDS011;15315;50.836;4.430;2023-06-14T12:14:07;13.73;;;5.18;;
27979;SDS011;15315;50.836;4.430;2023-06-14T12:24:08;12.48;;;5.72;;
27979;SDS011;15315;50.836;4.430;2023-06-14T12:44:12;13.75;;;4.60;;
27979;SDS011;15315;50.836;4.430;2023-06-14T12:54:13;9.23;;;4.30;;
27979;SDS011;15315;50.836;4.430;2023-06-14T13:04:14;9.45;;;4.75;;
27979;SDS011;15315;50.836;4.430;2023-06-14T13:14:15;8.70;;;4.35;;
27979;SDS011;15315;50.836;4.430;2023-06-14T13:24:16;8.57;;;4.03;;
27979;SDS011;15315;50.836;4.430;2023-06-14T13:34:16;12.25;;;4.35;;
27979;SDS011;15315;50.836;4.430;2023-06-14T13:44:17;6.50;;;3.40;;
27979;SDS011;15315;50.836;4.430;2023-06-14T13:54:21;8.85;;;3.65;;
27979;SDS011;15315;50.836;4.430;2023-06-14T14:04:21;7.85;;;3.35;;
27979;SDS011;15315;50.836;4.430;2023-06-14T14:14:21;7.72;;;3.33;;
27979;SDS011;15315;50.836;4.430;2023-06-14T14:24:23;3.42;;;2.80;;
27979;SDS011;15315;50.836;4.430;2023-06-14T14:34:24;14.75;;;3.10;;
27979;SDS011;15315;50.836;4.430;2023-06-14T14:44:25;9.02;;;3.00;;
27979;SDS011;15315;50.836;4.430;2023-06-14T14:54:25;9.90;;;2.88;;
27979;SDS011;15315;50.836;4.430;2023-06-14T15:04:26;7.32;;;2.97;;
27979;SDS011;15315;50.836;4.430;2023-06-14T15:14:26;12.98;;;2.75;;
27979;SDS011;15315;50.836;4.430;2023-06-14T15:24:26;7.07;;;2.80;;
27979;SDS011;15315;50.836;4.430;2023-06-14T15:34:27;6.18;;;2.90;;
27979;SDS011;15315;50.836;4.430;2023-06-14T15:44:27;7.35;;;2.75;;
27979;SDS011;15315;50.836;4.430;2023-06-14T15:54:28;4.72;;;2.90;;
27979;SDS011;15315;50.836;4.430;2023-06-14T16:04:28;12.95;;;6.35;;
27979;SDS011;15315;50.836;4.430;2023-06-14T16:14:29;21.33;;;12.55;;
27979;SDS011;15315;50.836;4.430;2023-06-14T16:24:29;19.88;;;17.95;;
27979;SDS011;15315;50.836;4.430;2023-06-14T16:34:30;19.05;;;17.67;;
27979;SDS011;15315;50.836;4.430;2023-06-14T16:44:32;21.75;;;19.63;;
27979;SDS011;15315;50.836;4.430;2023-06-14T16:54:33;19.85;;;18.27;;
27979;SDS011;15315;50.836;4.430;2023-06-14T17:04:33;19.30;;;16.67;;
27979;SDS011;15315;50.836;4.430;2023-06-14T17:14:33;18.85;;;17.25;;
27979;SDS011;15315;50.836;4.430;2023-06-14T17:24:34;19.33;;;16.90;;
27979;SDS011;15315;50.836;4.430;2023-06-14T17:34:34;14.27;;;13.10;;
27979;SDS011;15315;50.836;4.430;2023-06-14T17:44:35;13.93;;;12.68;;
27979;SDS011;15315;50.836;4.430;2023-06-14T17:54:36;9.73;;;6.63;;
27979;SDS011;15315;50.836;4.430;2023-06-14T18:04:36;9.85;;;4.07;;
27979;SDS011;15315;50.836;4.430;2023-06-14T18:14:36;6.18;;;2.40;;
27979;SDS011;15315;50.836;4.430;2023-06-14T18:24:37;6.68;;;3.25;;
27979;SDS011;15315;50.836;4.430;2023-06-14T18:34:37;6.35;;;2.58;;
27979;SDS011;15315;50.836;4.430;2023-06-14T18:44:38;6.23;;;2.70;;
27979;SDS011;15315;50.836;4.430;2023-06-14T18:54:38;7.40;;;2.10;;
27979;SDS011;15315;50.836;4.430;2023-06-14T19:04:39;6.85;;;2.10;;
27979;SDS011;15315;50.836;4.430;2023-06-14T19:14:40;13.48;;;3.13;;
27979;SDS011;15315;50.836;4.430;2023-06-14T19:24:40;6.38;;;2.60;;
27979;SDS011;15315;50.836;4.430;2023-06-14T19:34:41;6.53;;;2.50;;
27979;SDS011;15315;50.836;4.430;2023-06-14T19:44:45;9.02;;;2.38;;
27979;SDS011;15315;50.836;4.430;2023-06-14T19:54:46;8.27;;;2.60;;
27979;SDS011;15315;50.836;4.430;2023-06-14T20:04:46;13.30;;;2.58;;
27979;SDS011;15315;50.836;4.430;2023-06-14T20:14:47;5.38;;;2.10;;
27979;SDS011;15315;50.836;4.430;2023-06-14T20:24:49;6.72;;;2.08;;
27979;SDS011;15315;50.836;4.430;2023-06-14T20:34:50;6.10;;;2.13;;
27979;SDS011;15315;50.836;4.430;2023-06-14T20:44:51;13.02;;;2.10;;
27979;SDS011;15315;50.836;4.430;2023-06-14T20:54:52;6.85;;;2.63;;
27979;SDS011;15315;50.836;4.430;2023-06-14T21:04:54;13.95;;;2.40;;
27979;SDS011;15315;50.836;4.430;2023-06-14T21:14:55;6.53;;;2.30;;
27979;SDS011;15315;50.836;4.430;2023-06-14T21:24:55;10.05;;;2.60;;
27979;SDS011;15315;50.836;4.430;2023-06-14T21:34:56;7.63;;;2.75;;
27979;SDS011;15315;50.836;4.430;2023-06-14T21:44:56;5.20;;;2.42;;
27979;SDS011;15315;50.836;4.430;2023-06-14T21:54:57;5.72;;;2.58;;
27979;SDS011;15315;50.836;4.430;2023-06-14T22:04:57;9.23;;;2.42;;
27979;SDS011;15315;50.836;4.430;2023-06-14T22:14:57;7.93;;;2.90;;
27979;SDS011;15315;50.836;4.430;2023-06-14T22:24:58;5.25;;;2.65;;
27979;SDS011;15315;50.836;4.430;2023-06-14T22:34:58;6.45;;;3.05;;
27979;SDS011;15315;50.836;4.430;2023-06-14T22:45:02;3.93;;;2.90;;
27979;SDS011;15315;50.836;4.430;2023-06-14T22:55:04;11.35;;;2.80;;
27979;SDS011;15315;50.836;4.430;2023-06-14T23:05:05;5.32;;;2.90;;
27979;SDS011;15315;50.836;4.430;2023-06-14T23:15:06;6.82;;;2.85;;
27979;SDS011;15315;50.836;4.430;2023-06-14T23:25:08;6.32;;;3.25;;
27979;SDS011;15315;50.836;4.430;2023-06-14T23:35:09;15.73;;;3.55;;
27979;SDS011;15315;50.836;4.430;2023-06-14T23:45:10;6.20;;;2.60;;
27979;SDS011;15315;50.836;4.430;2023-06-14T23:55:11;6.22;;;2.90;;
